Time;durP1;ratioP1;P1;durP2;ratioP2;P2;SDS_P1;SDS_P2;PMS_P1;PMS_P2;Temp;Humidity;BMP_temperature;BMP_pressure;BME280_temperature;BME280_humidity;BME280_pressure;Samples;Min_cycle;Max_cycle;Signal;HPM_P1;HPM_P2
2022/11/19 00:00:48;;;;;;;2.65;1.50;;;;;;;-2.17;100.00;100790.31;4988971;28;20045;-76
2022/11/19 00:03:14;;;;;;;;;;;;;;;-2.17;100.00;100800.78;4990018;28;20407;-77
2022/11/19 00:05:41;;;;;;;3.97;1.48;;;;;;;-2.20;100.00;100791.31;5021788;28;19924;-77
2022/11/19 00:08:07;;;;;;;3.58;1.70;;;;;;;-2.20;100.00;100796.53;4973084;28;20041;-76
2022/11/19 00:10:37;;;;;;;;;;;;;;;-2.17;100.00;100804.22;4989088;28;20040;-76
2022/11/19 00:13:03;;;;;;;6.32;2.00;;;;;;;-2.22;100.00;100813.25;4990736;28;20020;-76
2022/11/19 00:15:28;;;;;;;2.30;1.67;;;;;;;-2.32;100.00;100797.16;4972670;28;20033;-76
2022/11/19 00:17:56;;;;;;;2.17;1.45;;;;;;;-2.32;100.00;100797.16;4989196;28;20475;-76
2022/11/19 00:20:21;;;;;;;4.47;1.77;;;;;;;-2.33;100.00;100798.09;4972263;28;20037;-76
2022/11/19 00:22:54;;;;;;;3.13;1.70;;;;;;;-2.39;100.00;100787.94;4988951;28;20042;-74
2022/11/19 00:25:20;;;;;;;2.75;1.70;;;;;;;-2.41;100.00;100785.41;4988096;28;20741;-76
2022/11/19 00:27:46;;;;;;;2.72;1.60;;;;;;;-2.45;100.00;100781.25;4988842;28;20030;-74
2022/11/19 00:30:13;;;;;;;6.45;1.63;;;;;;;-2.48;100.00;100784.03;4972964;28;20125;-77
2022/11/19 00:32:38;;;;;;;2.78;1.42;;;;;;;-2.57;100.00;100769.66;4988568;28;20046;-77
2022/11/19 00:35:04;;;;;;;2.05;1.50;;;;;;;-2.64;100.00;100757.00;4988722;28;20041;-75
2022/11/19 00:37:29;;;;;;;;;;;;;;;-2.64;100.00;100767.44;4972993;28;20053;-75
2022/11/19 00:39:55;;;;;;;4.00;1.35;;;;;;;-2.72;100.00;100746.91;5004691;28;20088;-77
2022/11/19 00:42:21;;;;;;;2.75;1.40;;;;;;;-2.77;100.00;100741.06;4988623;28;20092;-74
2022/11/19 00:44:46;;;;;;;4.90;1.48;;;;;;;-2.78;100.00;100749.84;4989756;28;20383;-76
2022/11/19 00:47:12;;;;;;;1.90;1.35;;;;;;;-2.80;100.00;100752.53;5004959;28;20388;-75
2022/11/19 00:49:37;;;;;;;5.32;2.05;;;;;;;-2.49;100.00;100805.03;5005472;28;20042;-76
2022/11/19 00:52:03;;;;;;;3.95;2.10;;;;;;;-2.30;100.00;100839.78;5005257;28;20181;-76
2022/11/19 00:54:28;;;;;;;3.97;1.92;;;;;;;-2.26;100.00;100841.31;4989279;28;20030;-76
2022/11/19 00:56:54;;;;;;;4.07;2.30;;;;;;;-2.29;100.00;100851.94;4973338;28;20065;-77
2022/11/19 00:59:19;;;;;;;2.45;1.70;;;;;;;-2.26;100.00;100864.00;4986472;28;20043;-77
2022/11/19 01:01:44;;;;;;;4.80;3.28;;;;;;;-2.33;100.00;100861.69;4970267;28;20471;-76
2022/11/19 01:04:10;;;;;;;8.73;2.10;;;;;;;-2.41;100.00;100860.38;4987216;28;20046;-75
2022/11/19 01:06:35;;;;;;;3.67;1.77;;;;;;;-2.48;100.00;100859.00;4970385;28;20026;-77
2022/11/19 01:09:01;;;;;;;4.97;1.95;;;;;;;-2.61;100.00;100851.75;4987120;28;20038;-75
2022/11/19 01:11:29;;;;;;;5.20;2.63;;;;;;;-2.64;100.00;100845.84;4979551;28;20034;-76
2022/11/19 01:13:55;;;;;;;5.00;2.13;;;;;;;-2.73;100.00;100836.69;4974829;28;20054;-76
2022/11/19 01:16:24;;;;;;;5.32;1.65;;;;;;;-2.86;100.00;100830.38;4986891;28;20038;-77
2022/11/19 01:18:50;;;;;;;4.93;1.98;;;;;;;-2.94;100.00;100822.06;5002805;28;20057;-76
2022/11/19 01:21:17;;;;;;;5.90;1.55;;;;;;;-2.97;100.00;100817.84;4970712;28;20049;-74
2022/11/19 01:23:43;;;;;;;3.50;2.45;;;;;;;-2.99;100.00;100811.84;5003061;28;20036;-77
2022/11/19 01:26:11;;;;;;;3.45;1.90;;;;;;;-3.00;100.00;100812.75;4986895;28;20399;-76
2022/11/19 01:28:37;;;;;;;4.35;2.00;;;;;;;-3.06;100.00;100813.91;4986742;28;20137;-76
2022/11/19 01:31:24;;;;;;;4.07;1.85;;;;;;;-3.04;100.00;100813.84;4986953;28;20082;-76
2022/11/19 01:33:50;;;;;;;3.60;1.90;;;;;;;-3.06;100.00;100811.28;4987215;28;20042;-76
2022/11/19 01:36:18;;;;;;;9.35;2.40;;;;;;;-2.98;100.00;100824.81;4986084;28;20038;-75
2022/11/19 01:38:49;;;;;;;7.05;1.73;;;;;;;-2.87;100.00;100839.13;4970716;28;20080;-77
2022/11/19 01:41:21;;;;;;;3.42;1.60;;;;;;;-2.91;100.00;100837.59;4986650;28;20492;-77
2022/11/19 01:43:49;;;;;;;4.85;2.10;;;;;;;-2.85;100.00;100843.38;5002696;28;20049;-77
2022/11/19 01:46:19;;;;;;;4.93;1.65;;;;;;;-2.82;100.00;100858.03;4977821;28;20019;-77
2022/11/19 01:48:55;;;;;;;4.07;1.70;;;;;;;-2.85;100.00;100864.28;4988144;28;20026;-75
2022/11/19 01:51:30;;;;;;;;;;;;;;;-2.86;100.00;100862.56;4974457;28;20042;-74
2022/11/19 01:54:00;;;;;;;2.47;1.30;;;;;;;-2.88;100.00;100867.03;4986576;28;19980;-77
2022/11/19 01:56:27;;;;;;;3.53;1.55;;;;;;;-2.88;100.00;100860.94;4986889;28;20512;-74
2022/11/19 01:59:01;;;;;;;3.20;1.80;;;;;;;-2.90;100.00;100852.31;4987841;28;20026;-77
2022/11/19 02:01:28;;;;;;;2.88;1.60;;;;;;;-2.85;100.00;100863.44;4986692;28;20451;-76
2022/11/19 02:03:54;;;;;;;3.20;1.67;;;;;;;-2.82;100.00;100868.50;4986845;28;20042;-76
2022/11/19 02:06:20;;;;;;;2.67;1.55;;;;;;;-2.84;100.00;100872.94;4986640;28;20104;-78
2022/11/19 02:08:51;;;;;;;3.60;1.58;;;;;;;-2.82;100.00;100873.72;4986749;28;20034;-76
2022/11/19 02:11:23;;;;;;;3.40;2.10;;;;;;;-2.80;100.00;100879.72;4984846;28;20038;-76
2022/11/19 02:14:39;;;;;;;3.47;2.08;;;;;;;-2.75;100.00;100890.81;4986393;28;20045;-80
2022/11/19 02:17:33;;;;;;;4.60;2.20;;;;;;;-2.79;100.00;100884.03;4998832;28;20491;-77
2022/11/19 02:20:21;;;;;;;7.10;2.13;;;;;;;-2.69;100.00;100906.19;5002836;28;20088;-77
2022/11/19 02:23:08;;;;;;;3.25;1.90;;;;;;;-2.61;100.00;100909.28;4987314;28;20125;-76
2022/11/19 02:25:51;;;;;;;2.85;1.80;;;;;;;-2.49;100.00;100918.28;5015897;28;20096;-77
2022/11/19 02:28:30;;;;;;;3.97;2.00;;;;;;;-2.23;100.00;100937.94;4997606;28;20042;-76
2022/11/19 02:31:15;;;;;;;2.80;2.17;;;;;;;-2.15;100.00;100937.56;4988253;28;20038;-74
2022/11/19 02:33:53;;;;;;;3.72;1.75;;;;;;;-2.08;100.00;100931.09;4984409;28;20503;-75
2022/11/19 02:36:26;;;;;;;3.70;1.83;;;;;;;-2.03;100.00;100936.09;4977808;28;20096;-75
2022/11/19 02:39:03;;;;;;;3.15;1.80;;;;;;;-1.94;100.00;100940.88;5002661;28;20555;-77
2022/11/19 02:41:32;;;;;;;4.45;2.20;;;;;;;-1.75;100.00;100954.72;4983768;28;20034;-77
2022/11/19 02:46:52;;;;;;;5.50;1.95;;;;;;;-1.60;100.00;100954.84;4986429;28;20124;-76
2022/11/19 02:49:22;;;;;;;4.15;1.98;;;;;;;-1.59;100.00;100954.78;4986126;28;20062;-77
2022/11/19 02:51:48;;;;;;;4.78;1.75;;;;;;;-1.56;100.00;100951.16;4973360;28;20030;-76
2022/11/19 02:54:17;;;;;;;6.43;2.30;;;;;;;-1.50;100.00;100951.69;4971958;28;20116;-77
2022/11/19 02:56:54;;;;;;;4.20;1.90;;;;;;;-1.30;100.00;100963.72;4989519;28;20411;-77
2022/11/19 03:05:05;;;;;;;6.30;1.70;;;;;;;-0.96;100.00;100985.50;4981624;28;20042;-76
2022/11/19 03:07:30;;;;;;;3.42;1.48;;;;;;;-0.94;100.00;100985.41;4981383;28;20077;-74
2022/11/19 03:10:01;;;;;;;4.77;2.27;;;;;;;-0.96;100.00;100976.78;4980099;28;20116;-74
2022/11/19 03:12:45;;;;;;;5.28;1.80;;;;;;;-0.94;100.00;100975.75;4984325;28;20312;-77
2022/11/19 03:18:22;;;;;;;3.03;1.80;;;;;;;-0.87;100.00;100977.16;4982944;28;20046;-75
2022/11/19 03:21:12;;;;;;;2.85;1.70;;;;;;;-0.89;100.00;100962.41;5000023;28;20038;-77
2022/11/19 03:23:43;;;;;;;2.33;2.10;;;;;;;-0.92;100.00;100954.72;4998056;28;20042;-76
2022/11/19 03:26:21;;;;;;;4.38;1.95;;;;;;;-0.92;100.00;100954.72;4983926;28;20056;-75
2022/11/19 03:28:48;;;;;;;3.35;1.80;;;;;;;-1.01;100.00;100940.34;4983761;28;20400;-76
2022/11/19 03:31:17;;;;;;;4.03;1.48;;;;;;;-1.10;100.00;100932.97;4984045;28;20030;-76
2022/11/19 03:33:48;;;;;;;2.45;1.45;;;;;;;-1.14;100.00;100936.72;4967887;28;20368;-76
2022/11/19 03:36:19;;;;;;;5.00;1.92;;;;;;;-1.24;100.00;100925.88;4982149;28;20054;-75
2022/11/19 03:38:50;;;;;;;2.95;2.03;;;;;;;-1.29;100.00;100933.13;4983714;28;20042;-75
2022/11/19 03:41:18;;;;;;;3.85;1.58;;;;;;;-1.39;100.00;100924.91;4983591;28;20034;-75
2022/11/19 03:43:47;;;;;;;2.63;1.58;;;;;;;-1.44;100.00;100921.69;4967331;28;20133;-75
2022/11/19 03:46:16;;;;;;;3.70;1.25;;;;;;;-1.50;100.00;100929.88;4983873;28;20562;-76
2022/11/19 03:48:44;;;;;;;1.95;1.20;;;;;;;-1.59;100.00;100915.50;4999986;28;20046;-75
2022/11/19 03:51:14;;;;;;;5.43;1.70;;;;;;;-1.65;100.00;100905.34;4983720;28;20050;-77
2022/11/19 03:53:39;;;;;;;4.60;1.60;;;;;;;-1.84;100.00;100891.53;5000085;28;20484;-77
2022/11/19 03:56:13;;;;;;;2.70;1.88;;;;;;;-1.83;100.00;100895.81;4985291;28;20026;-77
2022/11/19 03:58:41;;;;;;;3.20;1.80;;;;;;;-1.83;100.00;100898.44;4967625;28;20411;-75
2022/11/19 04:01:07;;;;;;;4.72;1.80;;;;;;;-1.92;100.00;100891.91;4971007;28;20080;-75
2022/11/19 04:03:33;;;;;;;4.35;2.17;;;;;;;-1.99;100.00;100888.78;4987526;28;20026;-76
2022/11/19 04:05:58;;;;;;;2.65;1.58;;;;;;;-2.04;100.00;100889.91;4987291;28;20399;-76
2022/11/19 04:08:24;;;;;;;2.95;2.03;;;;;;;-2.12;100.00;100891.16;4987523;28;20046;-76
2022/11/19 04:10:49;;;;;;;3.42;1.60;;;;;;;-2.14;100.00;100893.00;5002928;28;20069;-76
2022/11/19 04:13:14;;;;;;;5.28;2.53;;;;;;;-2.25;100.00;100889.22;4988594;28;20052;-76
2022/11/19 04:15:40;;;;;;;3.42;1.60;;;;;;;-2.30;100.00;100883.38;4986777;28;20081;-76
2022/11/19 04:18:05;;;;;;;4.50;1.70;;;;;;;-2.35;100.00;100876.63;5003588;28;20034;-74
2022/11/19 04:20:31;;;;;;;4.50;3.00;;;;;;;-2.41;100.00;100878.69;4971835;28;20046;-75
2022/11/19 04:22:56;;;;;;;3.17;1.80;;;;;;;-2.45;100.00;100885.84;4993520;28;20340;-76
2022/11/19 04:25:21;;;;;;;4.57;1.88;;;;;;;-2.39;100.00;100889.91;4988807;28;20046;-76
2022/11/19 04:27:48;;;;;;;4.47;2.05;;;;;;;-2.48;100.00;100888.63;4990187;28;20018;-77
2022/11/19 04:30:14;;;;;;;3.17;1.75;;;;;;;-2.49;100.00;100886.06;4973709;28;20034;-77
2022/11/19 04:32:40;;;;;;;5.63;2.03;;;;;;;-2.47;100.00;100892.06;4989041;28;20038;-77
2022/11/19 04:35:06;;;;;;;;;;;;;;;-2.50;100.00;100894.84;4989328;28;20385;-77
2022/11/19 04:37:31;;;;;;;3.15;1.63;;;;;;;-2.46;100.00;100901.59;5005241;28;19920;-77
2022/11/19 04:39:57;;;;;;;3.75;2.00;;;;;;;-2.51;100.00;100886.13;4989784;28;20531;-77
2022/11/19 04:42:22;;;;;;;4.65;2.03;;;;;;;-2.33;100.00;100907.94;4988717;28;20586;-77
2022/11/19 04:44:48;;;;;;;4.90;2.22;;;;;;;-2.29;100.00;100909.47;4988760;28;20034;-75
2022/11/19 04:47:13;;;;;;;6.60;2.15;;;;;;;-2.16;100.00;100918.38;4989361;28;20128;-77
2022/11/19 04:49:38;;;;;;;3.75;2.08;;;;;;;-2.06;100.00;100931.88;4972756;28;20074;-77
2022/11/19 04:52:04;;;;;;;5.95;1.92;;;;;;;-1.86;100.00;100937.88;5005343;28;20423;-76
2022/11/19 04:54:29;;;;;;;4.35;2.28;;;;;;;-1.75;100.00;100948.63;5005294;28;20443;-77
2022/11/19 04:56:54;;;;;;;20.93;3.77;;;;;;;-1.63;100.00;100947.16;4990546;28;20042;-76
2022/11/19 04:59:20;;;;;;;3.63;2.13;;;;;;;-1.46;100.00;100956.75;4988982;28;20301;-77
2022/11/19 05:01:45;;;;;;;5.55;2.08;;;;;;;-1.48;100.00;100943.72;4972140;28;20741;-76
2022/11/19 05:04:10;;;;;;;5.30;2.10;;;;;;;-1.37;100.00;100944.00;4988400;28;20026;-75
2022/11/19 05:06:36;;;;;;;3.63;1.80;;;;;;;-1.38;100.00;100952.81;4971955;28;20038;-77
2022/11/19 05:09:01;;;;;;;5.78;2.10;;;;;;;-1.38;100.00;100934.47;4972268;28;20045;-77
2022/11/19 05:11:26;;;;;;;2.63;1.40;;;;;;;-1.43;100.00;100925.16;5004023;28;20030;-75
2022/11/19 05:13:52;;;;;;;2.58;1.77;;;;;;;-1.44;100.00;100908.59;4983753;28;20526;-76
2022/11/19 05:16:17;;;;;;;6.30;1.75;;;;;;;-1.32;100.00;100928.06;4988258;28;20042;-74
2022/11/19 05:18:43;;;;;;;6.07;1.65;;;;;;;-1.46;100.00;100909.59;5004032;28;20069;-77
2022/11/19 05:21:08;;;;;;;3.53;2.58;;;;;;;-1.45;100.00;100896.44;4987013;28;20401;-77
2022/11/19 05:23:33;;;;;;;2.72;1.48;;;;;;;-1.51;100.00;100886.28;4986883;28;20488;-77
2022/11/19 05:25:59;;;;;;;8.82;2.08;;;;;;;-1.53;100.00;100888.13;4986748;28;20113;-77
2022/11/19 05:28:24;;;;;;;2.70;1.50;;;;;;;-1.71;100.00;100864.63;4975008;28;20246;-77
2022/11/19 05:30:53;;;;;;;3.65;1.80;;;;;;;-1.73;100.00;100863.88;5002891;28;20606;-77
2022/11/19 05:33:18;;;;;;;4.13;2.05;;;;;;;-1.79;100.00;100848.47;4985613;28;20035;-77
2022/11/19 05:35:43;;;;;;;4.00;2.43;;;;;;;-1.83;100.00;100846.94;4987705;28;20034;-76
2022/11/19 05:38:09;;;;;;;3.70;2.15;;;;;;;-1.86;100.00;100843.66;4987917;28;20284;-76
2022/11/19 05:40:34;;;;;;;3.10;1.83;;;;;;;-1.88;100.00;100845.50;4986125;28;20058;-77
2022/11/19 05:43:04;;;;;;;3.42;1.50;;;;;;;-1.97;100.00;100839.81;5002740;28;20030;-75
2022/11/19 05:45:30;;;;;;;5.30;1.92;;;;;;;-2.08;100.00;100836.91;4966851;28;20034;-76
2022/11/19 05:47:55;;;;;;;4.10;1.70;;;;;;;-2.19;100.00;100815.69;4987761;28;20503;-74
2022/11/19 05:50:21;;;;;;;2.83;1.67;;;;;;;-2.18;100.00;100820.00;5002849;28;20331;-75
2022/11/19 05:52:48;;;;;;;4.72;1.95;;;;;;;-2.25;100.00;100811.59;5002265;28;20101;-77
2022/11/19 05:55:14;;;;;;;3.30;1.80;;;;;;;-2.26;100.00;100814.31;4986261;28;20071;-77
2022/11/19 05:57:39;;;;;;;4.00;2.00;;;;;;;-2.28;100.00;100814.38;4987418;28;20477;-77
2022/11/19 06:00:05;;;;;;;7.47;2.40;;;;;;;-2.33;100.00;100801.53;4987711;28;20042;-77
2022/11/19 06:02:37;;;;;;;2.53;1.42;;;;;;;-2.31;100.00;100811.94;4986157;28;20030;-77
2022/11/19 06:05:04;;;;;;;6.75;1.50;;;;;;;-2.29;100.00;100815.31;4986270;28;20038;-77
2022/11/19 06:07:29;;;;;;;3.65;1.83;;;;;;;-2.35;100.00;100810.41;5015450;28;20038;-77
2022/11/19 06:09:54;;;;;;;6.88;1.85;;;;;;;-2.43;100.00;100804.72;5002251;28;20049;-76
2022/11/19 06:12:20;;;;;;;4.88;1.85;;;;;;;-2.41;100.00;100805.47;4988416;28;20045;-77
2022/11/19 06:14:45;;;;;;;3.50;1.98;;;;;;;-2.46;100.00;100803.13;5004109;28;20037;-75
2022/11/19 06:17:10;;;;;;;1.98;1.40;;;;;;;-2.49;100.00;100791.97;4988003;28;20553;-75
2022/11/19 06:19:36;;;;;;;5.95;1.77;;;;;;;-2.37;100.00;100813.09;4988436;28;20038;-77
2022/11/19 06:22:01;;;;;;;4.68;2.13;;;;;;;-2.43;100.00;100808.19;4988031;28;20045;-76
2022/11/19 06:24:26;;;;;;;2.25;1.50;;;;;;;-2.45;100.00;100812.63;5000938;28;20065;-76
2022/11/19 06:26:52;;;;;;;3.97;2.13;;;;;;;-2.42;100.00;100809.84;4987680;28;20034;-77
2022/11/19 06:29:17;;;;;;;5.80;2.42;;;;;;;-2.44;100.00;100829.16;4988381;28;20039;-76
2022/11/19 06:31:43;;;;;;;9.70;1.98;;;;;;;-2.47;100.00;100840.63;4988904;28;20118;-76
2022/11/19 06:34:09;;;;;;;;;;;;;;;-2.50;100.00;100838.19;4988824;28;20061;-77
2022/11/19 06:36:34;;;;;;;5.65;2.15;;;;;;;-2.52;100.00;100839.19;4988421;28;20777;-77
2022/11/19 06:39:00;;;;;;;4.68;2.25;;;;;;;-2.51;100.00;100844.31;4988204;28;20026;-76
2022/11/19 06:41:25;;;;;;;10.65;4.50;;;;;;;-2.47;100.00;100845.03;4974408;28;20049;-77
2022/11/19 06:43:51;;;;;;;8.02;3.55;;;;;;;-2.51;100.00;100839.06;4987332;28;20407;-75
2022/11/19 06:46:16;;;;;;;7.50;3.22;;;;;;;-2.52;100.00;100836.56;4987448;28;20060;-74
2022/11/19 06:48:42;;;;;;;20.77;4.90;;;;;;;-2.54;100.00;100847.09;4987614;28;20117;-77
2022/11/19 06:51:07;;;;;;;8.00;3.53;;;;;;;-2.54;100.00;100844.47;4987351;28;20149;-79
2022/11/19 06:53:33;;;;;;;7.00;2.72;;;;;;;-2.52;100.00;100844.41;4985820;28;20110;-74
2022/11/19 06:56:01;;;;;;;11.35;3.80;;;;;;;-2.52;100.00;100853.09;4986357;28;20038;-74
2022/11/19 06:58:27;;;;;;;10.35;2.78;;;;;;;-2.56;100.00;100846.31;4986100;28;20038;-75
2022/11/19 07:00:53;;;;;;;9.05;2.60;;;;;;;-2.58;100.00;100848.16;4985394;28;20377;-74
2022/11/19 07:03:18;;;;;;;9.38;2.42;;;;;;;-2.62;100.00;100839.63;5002290;28;20037;-75
2022/11/19 07:05:49;;;;;;;7.15;3.42;;;;;;;-2.61;100.00;100841.31;4975586;28;20045;-76
2022/11/19 07:08:15;;;;;;;4.55;2.50;;;;;;;-2.50;100.00;100847.78;4987237;28;20058;-75
2022/11/19 07:10:42;;;;;;;4.35;2.50;;;;;;;-2.43;100.00;100852.63;4969625;28;20034;-76
2022/11/19 07:13:07;;;;;;;4.95;2.35;;;;;;;-2.40;100.00;100844.63;4987383;28;20038;-75
2022/11/19 07:15:33;;;;;;;5.18;2.33;;;;;;;-2.28;100.00;100860.63;4985972;28;20038;-75
2022/11/19 07:18:00;;;;;;;7.03;2.25;;;;;;;-2.24;100.00;100857.78;4987285;28;20040;-76
2022/11/19 07:20:25;;;;;;;5.40;1.95;;;;;;;-2.16;100.00;100862.63;4969769;28;20084;-75
2022/11/19 07:22:50;;;;;;;3.17;1.95;;;;;;;-2.09;100.00;100868.38;4987078;28;20043;-77
2022/11/19 07:25:16;;;;;;;5.22;1.92;;;;;;;-2.08;100.00;100863.09;4986677;28;20088;-76
2022/11/19 07:27:47;;;;;;;3.60;3.05;;;;;;;-1.94;100.00;100867.59;4986843;28;20045;-74
2022/11/19 07:30:14;;;;;;;3.38;2.08;;;;;;;-1.78;100.00;100878.09;4985516;28;20042;-75
2022/11/19 07:32:40;;;;;;;3.92;1.67;;;;;;;-1.74;100.00;100867.38;4986504;28;20114;-77
2022/11/19 07:35:08;;;;;;;5.07;2.55;;;;;;;-1.60;100.00;100877.13;4973364;28;20030;-75
2022/11/19 07:37:34;;;;;;;7.03;2.65;;;;;;;-1.49;100.00;100877.41;4989416;28;20052;-74
2022/11/19 07:40:00;;;;;;;7.07;1.95;;;;;;;-1.29;100.00;100888.59;4989386;28;20104;-74
2022/11/19 07:45:09;;;;;;;9.70;2.10;;;;;;;-0.80;100.00;100898.16;5005183;28;20041;-76
2022/11/19 07:47:34;;;;;;;4.73;2.07;;;;;;;-0.50;100.00;100899.03;4990170;28;20026;-74
2022/11/19 07:50:00;;;;;;;4.90;2.30;;;;;;;-0.18;100.00;100909.47;5005293;28;20308;-75
2022/11/19 07:52:25;;;;;;;2.90;1.45;;;;;;;0.07;100.00;100913.25;4989630;28;20038;-75
2022/11/19 07:54:51;;;;;;;2.88;2.08;;;;;;;0.19;100.00;100904.66;4989894;28;20411;-74
2022/11/19 07:57:16;;;;;;;4.68;1.60;;;;;;;0.46;100.00;100906.56;4972745;28;20748;-74
2022/11/19 07:59:41;;;;;;;1.93;1.23;;;;;;;0.64;100.00;100897.56;4988660;28;20113;-75
2022/11/19 08:02:10;;;;;;;6.40;1.77;;;;;;;0.55;100.00;100869.22;4989678;28;20317;-75
2022/11/19 08:04:36;;;;;;;2.47;1.38;;;;;;;0.62;100.00;100860.84;4989806;28;20096;-76
2022/11/19 08:07:01;;;;;;;3.67;1.30;;;;;;;0.63;100.00;100846.78;4988575;28;20046;-75
2022/11/19 08:09:26;;;;;;;4.18;1.48;;;;;;;0.61;100.00;100829.44;4989815;28;20064;-74
2022/11/19 08:11:52;;;;;;;4.47;1.17;;;;;;;0.76;100.00;100825.81;4989256;28;20373;-75
2022/11/19 08:14:17;;;;;;;2.50;1.37;;;;;;;1.01;100.00;100832.16;4988408;28;20297;-74
2022/11/19 08:19:26;;;;;;;3.40;1.17;;;;;;;2.29;100.00;100864.81;4989440;28;20038;-74
2022/11/19 08:21:52;;;;;;;1.47;1.17;;;;;;;2.92;100.00;100854.25;4971477;28;20037;-74
2022/11/19 08:24:18;;;;;;;3.77;1.70;;;;;;;3.36;100.00;100836.97;4989330;28;20365;-75
2022/11/19 08:26:44;;;;;;;4.05;1.15;;;;;;;3.63;100.00;100796.25;4989174;28;20034;-74
2022/11/19 08:29:12;;;;;;;3.17;1.10;;;;;;;3.84;100.00;100746.22;4989798;28;20153;-74
2022/11/19 08:31:38;;;;;;;2.55;1.08;;;;;;;4.06;100.00;100692.56;4988769;28;20506;-75
2022/11/19 08:34:03;;;;;;;2.95;0.95;;;;;;;4.36;100.00;100657.56;4987901;28;20034;-75
2022/11/19 08:36:29;;;;;;;2.10;0.90;;;;;;;4.40;100.00;100563.81;4989065;28;20101;-75
2022/11/19 08:38:59;;;;;;;1.90;1.15;;;;;;;4.49;100.00;100473.16;4987766;28;20104;-75
2022/11/19 08:44:10;;;;;;;1.92;1.00;;;;;;;4.65;100.00;100287.59;4982736;28;20054;-75
2022/11/19 08:46:36;;;;;;;2.55;1.40;;;;;;;4.86;100.00;100242.53;4988026;28;20096;-77
2022/11/19 08:49:01;;;;;;;;;;;;;;;4.91;100.00;100138.94;4989222;28;20042;-74
2022/11/19 08:51:27;;;;;;;1.65;0.93;;;;;;;4.78;100.00;100017.59;5003429;28;19914;-74
2022/11/19 08:53:52;;;;;;;4.90;1.10;;;;;;;4.75;100.00;99957.03;4988707;28;20034;-74
2022/11/19 08:56:18;;;;;;;3.85;1.77;;;;;;;4.62;100.00;99893.91;4987135;28;20507;-74
2022/11/19 08:58:44;;;;;;;4.32;2.20;;;;;;;4.62;100.00;99876.25;4987231;28;20092;-75
2022/11/19 09:01:11;;;;;;;3.90;1.88;;;;;;;4.43;100.00;99841.97;4987725;28;20098;-75
2022/11/19 09:03:37;;;;;;;4.75;1.90;;;;;;;4.78;100.00;99888.84;4986453;28;20121;-74
2022/11/19 09:06:02;;;;;;;1.77;1.35;;;;;;;4.93;100.00;99838.91;4987905;28;20596;-74
2022/11/19 09:08:28;;;;;;;3.27;1.10;;;;;;;5.04;100.00;99775.22;4988239;28;20038;-75
2022/11/19 09:10:54;;;;;;;2.58;1.20;;;;;;;5.38;100.00;99803.63;4987894;28;20325;-75
2022/11/19 09:13:19;;;;;;;1.80;1.00;;;;;;;5.42;100.00;99708.88;4987742;28;20036;-74
2022/11/19 09:15:47;;;;;;;3.67;1.37;;;;;;;5.53;100.00;99689.28;4986275;28;20026;-74
2022/11/19 09:18:13;;;;;;;2.03;1.13;;;;;;;5.51;100.00;99591.47;4987692;28;20125;-74
2022/11/19 09:20:39;;;;;;;1.77;0.90;;;;;;;5.63;100.00;99592.84;4987374;28;20109;-74
2022/11/19 09:23:04;;;;;;;2.15;1.27;;;;;;;5.34;100.00;99484.69;4987883;28;20042;-75
2022/11/19 09:25:30;;;;;;;2.80;1.50;;;;;;;5.25;100.00;99506.81;4970151;28;20081;-74
2022/11/19 09:27:55;;;;;;;1.60;1.33;;;;;;;5.35;100.00;99586.09;4987957;28;20045;-77
2022/11/19 09:30:20;;;;;;;3.57;1.20;;;;;;;5.62;100.00;99762.47;4986655;28;20574;-75
2022/11/19 09:32:46;;;;;;;5.93;1.20;;;;;;;5.47;100.00;99786.03;4970487;28;20042;-75
2022/11/19 09:35:11;;;;;;;2.00;1.17;;;;;;;5.62;100.00;99848.06;4987868;28;20030;-74
2022/11/19 09:37:36;;;;;;;2.03;0.83;;;;;;;5.46;100.00;99824.91;4987729;28;20538;-75
2022/11/19 09:40:03;;;;;;;2.17;1.07;;;;;;;5.65;100.00;99868.94;5002825;28;20545;-74
2022/11/19 09:42:49;;;;;;;1.33;0.80;;;;;;;5.69;100.00;99866.81;5002306;28;20042;-74
2022/11/19 09:45:23;;;;;;;1.38;0.70;;;;;;;5.42;100.00;99564.13;4999381;28;20041;-75
2022/11/19 09:48:11;;;;;;;3.85;2.15;;;;;;;4.96;100.00;99375.72;4986550;28;20036;-76
2022/11/19 09:51:13;;;;;;;7.53;3.60;;;;;;;5.80;100.00;99633.47;4985875;28;20057;-74
2022/11/19 09:53:47;;;;;;;3.92;2.15;;;;;;;6.18;100.00;99556.28;4987311;28;20038;-74
2022/11/19 09:56:21;;;;;;;4.20;2.03;;;;;;;6.42;100.00;99407.03;4986672;28;20034;-74
2022/11/19 09:58:47;;;;;;;4.68;1.95;;;;;;;5.88;100.00;99000.44;4985720;28;20031;-74
2022/11/19 10:01:17;;;;;;;1.25;0.90;;;;;;;5.61;100.00;98921.50;4985874;28;20449;-75
2022/11/19 10:03:48;;;;;;;0.77;0.70;;;;;;;5.48;100.00;98969.72;4987246;28;20038;-75
2022/11/19 10:06:13;;;;;;;0.68;0.65;;;;;;;5.39;100.00;99143.59;4985914;28;20033;-74
2022/11/19 10:08:57;;;;;;;1.90;1.13;;;;;;;5.19;100.00;99111.38;4987228;28;20825;-75
2022/11/19 10:11:31;;;;;;;3.20;1.00;;;;;;;5.00;100.00;98956.50;5000687;28;20038;-74
2022/11/19 10:14:34;;;;;;;4.75;0.93;;;;;;;4.91;100.00;98957.53;4998796;28;20111;-74
2022/11/19 10:17:18;;;;;;;1.77;0.80;;;;;;;4.70;100.00;98996.91;4985621;28;20900;-76
2022/11/19 10:20:17;;;;;;;1.35;0.70;;;;;;;4.36;100.00;98824.38;4986273;28;20069;-75
2022/11/19 10:23:16;;;;;;;0.70;0.50;;;;;;;4.10;100.00;98811.38;4986061;28;20049;-74
2022/11/19 10:25:48;;;;;;;0.82;0.50;;;;;;;3.98;100.00;98974.63;4988077;28;20047;-74
2022/11/19 10:28:23;;;;;;;1.52;1.00;;;;;;;3.90;100.00;99074.13;4986910;28;20041;-74
2022/11/19 10:30:53;;;;;;;5.70;1.60;;;;;;;3.93;100.00;99124.81;5001671;28;20034;-75
2022/11/19 10:33:21;;;;;;;3.25;1.42;;;;;;;3.80;100.00;99125.22;4985647;28;20484;-76
2022/11/19 10:35:51;;;;;;;4.40;0.70;;;;;;;3.51;100.00;99173.09;4985443;28;20034;-74
2022/11/19 10:38:30;;;;;;;3.10;0.63;;;;;;;3.43;100.00;99232.88;4998681;28;20046;-74
2022/11/19 10:41:04;;;;;;;3.88;0.90;;;;;;;3.38;100.00;99424.13;5017489;28;20046;-75
2022/11/19 10:43:40;;;;;;;0.90;0.50;;;;;;;3.37;100.00;99541.22;4986790;28;20124;-75
2022/11/19 10:46:10;;;;;;;1.70;0.80;;;;;;;3.41;100.00;99700.03;4986455;28;20041;-75
2022/11/19 10:48:42;;;;;;;2.35;0.57;;;;;;;3.53;100.00;99814.19;4985598;28;20443;-75
2022/11/19 10:51:18;;;;;;;3.05;0.77;;;;;;;3.47;100.00;99892.13;4986215;28;20415;-75
2022/11/19 10:53:44;;;;;;;1.80;0.73;;;;;;;3.46;100.00;100032.13;4986454;28;20117;-74
2022/11/19 10:56:41;;;;;;;2.25;0.98;;;;;;;3.52;100.00;100102.88;5001610;28;20022;-75
2022/11/19 10:59:17;;;;;;;1.40;0.73;;;;;;;3.58;100.00;100097.03;4986331;28;20050;-73
2022/11/19 11:01:46;;;;;;;3.40;0.80;;;;;;;3.56;100.00;100075.25;4986136;28;20035;-74
2022/11/19 11:04:17;;;;;;;1.73;0.82;;;;;;;3.47;100.00;100097.97;4985424;28;20419;-75
2022/11/19 11:06:57;;;;;;;2.65;0.77;;;;;;;3.55;100.00;100160.66;5001313;28;20038;-74
2022/11/19 11:09:38;;;;;;;2.15;0.68;;;;;;;3.61;100.00;100181.25;4973969;28;20042;-75
2022/11/19 11:15:16;;;;;;;1.83;0.70;;;;;;;3.81;100.00;100190.91;4992675;28;20120;-76
2022/11/19 11:17:44;;;;;;;4.18;1.60;;;;;;;3.80;100.00;100141.72;4987804;28;20129;-74
2022/11/19 11:20:16;;;;;;;2.55;1.33;;;;;;;3.94;100.00;100168.75;4991529;28;21032;-76
2022/11/19 11:22:44;;;;;;;1.65;1.08;;;;;;;4.20;100.00;100212.22;4991445;28;20042;-74
2022/11/19 11:25:23;;;;;;;1.90;1.33;;;;;;;4.34;100.00;100115.03;4990960;28;20904;-75
2022/11/19 11:28:17;;;;;;;2.35;0.70;;;;;;;4.58;100.00;99969.19;5006843;28;20045;-75
2022/11/19 11:30:53;;;;;;;0.95;0.85;;;;;;;4.84;100.00;99932.38;4992192;28;20046;-75
2022/11/19 11:33:27;;;;;;;4.03;0.93;;;;;;;4.85;100.00;99730.41;4992915;28;20034;-74
2022/11/19 11:35:55;;;;;;;1.85;0.77;;;;;;;4.74;100.00;99599.22;4988607;28;20026;-75
2022/11/19 11:38:23;;;;;;;3.22;0.88;;;;;;;4.70;100.00;99549.44;4985257;28;20116;-75
2022/11/19 11:41:08;;;;;;;2.05;0.65;;;;;;;4.46;100.00;99313.06;4990777;28;20045;-75
2022/11/19 11:43:37;;;;;;;7.38;0.65;;;;;;;4.40;100.00;99171.84;4991335;28;20042;-75
2022/11/19 11:46:08;;;;;;;1.60;0.60;;;;;;;4.42;100.00;99368.06;4991095;28;20030;-74
2022/11/19 11:48:42;;;;;;;6.90;1.23;;;;;;;4.27;100.00;99219.00;4991361;28;20030;-76
2022/11/19 11:51:26;;;;;;;0.90;0.47;;;;;;;4.19;100.00;99095.66;4992493;28;20065;-74
2022/11/19 11:54:20;;;;;;;1.77;0.52;;;;;;;4.09;100.00;98981.38;4975080;28;20042;-74
2022/11/19 11:56:46;;;;;;;2.63;0.50;;;;;;;4.11;100.00;99047.25;4992361;28;20034;-74